Time;durP1;ratioP1;P1;durP2;ratioP2;P2;SDS_P1;SDS_P2;PMS_P1;PMS_P2;Temp;Humidity;BMP_temperature;BMP_pressure;BME280_temperature;BME280_humidity;BME280_pressure;Samples;Min_cycle;Max_cycle;Signal;HPM_P1;HPM_P2
2022/12/15 00:39:02;;;;;;;56.90;23.17;;;;;;;-6.06;97.27;99652.66;8339778;28;20494;-85
2022/12/15 00:43:03;;;;;;;50.97;21.33;;;;;;;-6.25;98.79;99649.88;8321211;28;20683;-85
2022/12/15 00:47:04;;;;;;;59.22;24.38;;;;;;;-5.88;100.00;99667.72;8320891;28;20401;-85
2022/12/15 00:51:05;;;;;;;52.00;22.42;;;;;;;-6.03;98.97;99670.06;8320703;28;20776;-85
2022/12/15 01:21:31;;;;;;;54.35;23.05;;;;;;;-5.94;98.53;99702.16;8284917;28;20502;-86
2022/12/15 01:25:31;;;;;;;54.00;23.20;;;;;;;-5.89;98.49;99715.13;8290597;28;20538;-86
2022/12/15 01:29:32;;;;;;;58.58;27.05;;;;;;;-5.79;99.49;99698.91;8281402;28;20053;-86
2022/12/15 01:33:32;;;;;;;65.65;25.40;;;;;;;-6.00;97.07;99723.44;8281285;28;20042;-86
2022/12/15 01:37:34;;;;;;;57.83;24.02;;;;;;;-6.05;99.53;99725.38;8280865;28;20065;-86
2022/12/15 01:41:35;;;;;;;52.72;23.48;;;;;;;-6.10;100.00;99727.34;8281031;28;20073;-86
2022/12/15 01:45:54;;;;;;;98.75;33.65;;;;;;;-5.99;100.00;99740.94;8291107;28;20037;-86
2022/12/15 01:49:55;;;;;;;63.45;25.02;;;;;;;-6.16;100.00;99738.09;8297162;28;20044;-86
2022/12/15 01:54:05;;;;;;;61.40;26.00;;;;;;;-6.07;100.00;99743.00;8312994;28;20042;-86
2022/12/15 01:58:09;;;;;;;82.10;28.33;;;;;;;-5.87;100.00;99735.19;8297414;28;20030;-86
2022/12/15 02:02:11;;;;;;;62.00;24.95;;;;;;;-6.15;100.00;99731.91;8313302;28;20461;-86
2022/12/15 02:06:13;;;;;;;62.58;25.35;;;;;;;-6.18;100.00;99724.13;8280577;28;20500;-86
2022/12/15 02:10:14;;;;;;;78.57;29.00;;;;;;;-6.44;99.67;99713.69;8312348;28;20497;-86
2022/12/15 02:14:38;;;;;;;54.95;22.92;;;;;;;-6.43;100.00;99718.06;8296388;28;20408;-86
2022/12/15 02:19:08;;;;;;;60.67;25.92;;;;;;;-6.35;99.92;99745.75;8289923;28;20041;-86
2022/12/15 02:23:33;;;;;;;51.22;22.58;;;;;;;-6.52;98.44;99692.94;8283121;28;20042;-86
2022/12/15 02:28:00;;;;;;;56.60;23.75;;;;;;;-6.67;97.84;99697.91;8279229;28;20121;-86
2022/12/15 02:32:08;;;;;;;50.50;22.48;;;;;;;-6.27;99.03;99756.00;8280351;28;20441;-86
2022/12/15 02:36:20;;;;;;;54.50;24.88;;;;;;;-6.23;98.61;99762.84;8254018;28;20045;-86
2022/12/15 02:40:21;;;;;;;62.47;23.45;;;;;;;-6.53;95.56;99766.56;8264166;28;20041;-86
2022/12/15 02:44:29;;;;;;;63.15;23.75;;;;;;;-6.40;98.62;99746.84;8272205;28;20042;-85
2022/12/15 02:48:49;;;;;;;56.25;23.40;;;;;;;-6.47;97.50;99769.00;8247655;28;20044;-85
2022/12/15 02:53:30;;;;;;;57.17;25.00;;;;;;;-6.43;98.70;99768.00;8280780;28;20494;-85
2022/12/15 02:57:52;;;;;;;62.30;25.20;;;;;;;-6.37;97.88;99767.78;8295017;28;20034;-85
2022/12/15 03:02:00;;;;;;;49.25;23.00;;;;;;;-6.63;97.54;99773.06;8264771;28;20491;-85
2022/12/15 03:06:01;;;;;;;68.15;23.13;;;;;;;-6.61;100.00;99726.59;8294466;28;20038;-85
2022/12/15 03:10:06;;;;;;;48.50;19.90;;;;;;;-6.49;100.00;99755.06;8278549;28;20038;-85
2022/12/15 03:14:06;;;;;;;53.63;21.00;;;;;;;-6.65;100.00;99723.19;8263751;28;20482;-85
2022/12/15 03:18:07;;;;;;;58.45;21.38;;;;;;;-6.43;100.00;99775.88;8247492;28;20124;-85
2022/12/15 03:22:09;;;;;;;44.83;20.02;;;;;;;-6.72;99.25;99783.91;8245310;28;20038;-85
2022/12/15 03:26:10;;;;;;;54.25;21.48;;;;;;;-6.78;100.00;99735.06;8260475;28;20117;-85
2022/12/15 03:30:11;;;;;;;51.65;20.95;;;;;;;-6.29;100.00;99774.47;8262273;28;20037;-85
2022/12/15 03:34:12;;;;;;;49.25;21.25;;;;;;;-6.52;98.92;99774.41;8277492;28;20034;-85
2022/12/15 03:38:12;;;;;;;45.40;20.75;;;;;;;-6.36;100.00;99798.41;8277385;28;20041;-85
2022/12/15 03:42:13;;;;;;;49.05;20.67;;;;;;;-6.78;99.17;99765.72;8277923;28;20410;-85
2022/12/15 03:46:13;;;;;;;47.40;19.85;;;;;;;-6.66;100.00;99783.69;8278170;28;20080;-85
2022/12/15 03:50:18;;;;;;;49.80;19.00;;;;;;;-6.66;100.00;99768.78;8278472;28;20394;-85
2022/12/15 03:54:18;;;;;;;45.72;19.23;;;;;;;-6.49;100.00;99761.16;8278182;28;20038;-86
2022/12/15 03:58:19;;;;;;;40.75;18.67;;;;;;;-6.29;100.00;99797.25;8279490;28;20038;-86
2022/12/15 04:02:20;;;;;;;53.17;22.02;;;;;;;-6.45;100.00;99767.19;8293709;28;20072;-86
2022/12/15 04:06:21;;;;;;;49.65;21.67;;;;;;;-6.37;100.00;99768.63;8309582;28;20065;-86
2022/12/15 04:10:23;;;;;;;50.38;21.05;;;;;;;-6.35;100.00;99779.06;8293978;28;20084;-86
2022/12/15 04:14:23;;;;;;;46.33;20.42;;;;;;;-6.25;100.00;99812.03;8293628;28;20033;-86
2022/12/15 04:18:24;;;;;;;51.72;21.60;;;;;;;-6.22;100.00;99807.50;8277445;28;20037;-86
2022/12/15 04:22:24;;;;;;;48.72;19.83;;;;;;;-6.46;100.00;99781.25;8293811;28;20046;-86
2022/12/15 05:31:53;;;;;;;48.30;20.95;;;;;;;-6.33;100.00;99842.97;8328127;28;20045;-86
2022/12/15 05:35:57;;;;;;;41.92;19.13;;;;;;;-6.38;99.93;99847.53;8315316;28;20112;-86
2022/12/15 05:39:57;;;;;;;55.08;21.05;;;;;;;-6.42;99.96;99840.66;8297983;28;20033;-86
2022/12/15 05:43:58;;;;;;;53.78;20.30;;;;;;;-6.41;99.46;99842.38;8309199;28;25008;-85
2022/12/15 05:47:58;;;;;;;47.72;18.88;;;;;;;-6.36;99.81;99840.47;8277734;28;20042;-85
2022/12/15 05:51:59;;;;;;;51.63;20.73;;;;;;;-6.31;99.49;99864.84;8280798;28;20078;-85
2022/12/15 05:56:01;;;;;;;56.20;22.15;;;;;;;-6.35;99.50;99864.06;8263270;28;20037;-85
2022/12/15 06:00:04;;;;;;;48.60;21.67;;;;;;;-6.41;99.36;99852.88;8306682;28;20124;-88
2022/12/15 06:04:24;;;;;;;51.25;21.50;;;;;;;-6.34;99.53;99870.19;8484599;27;20715;-49
2022/12/15 06:08:29;;;;;;;51.78;21.75;;;;;;;-6.32;99.55;99873.59;8484011;27;20126;-49
2022/12/15 06:12:29;;;;;;;53.42;21.05;;;;;;;-6.34;99.02;99872.81;8483680;27;20040;-49
2022/12/15 06:16:30;;;;;;;59.05;22.13;;;;;;;-6.40;99.81;99865.13;8470275;27;20523;-50
2022/12/15 06:20:31;;;;;;;44.80;20.45;;;;;;;-6.42;99.55;99874.84;8486199;27;20038;-49
2022/12/15 06:24:31;;;;;;;51.50;20.27;;;;;;;-6.38;99.83;99884.31;8450001;27;20035;-49
2022/12/15 06:28:32;;;;;;;53.35;21.38;;;;;;;-6.29;100.00;99884.03;8461945;27;20050;-49
2022/12/15 06:32:35;;;;;;;53.92;21.02;;;;;;;-6.30;99.96;99884.94;8486944;27;20079;-49
2022/12/15 06:36:37;;;;;;;51.30;19.73;;;;;;;-6.49;99.91;99886.47;8463529;27;20047;-49
2022/12/15 06:40:39;;;;;;;46.55;18.80;;;;;;;-6.45;99.75;99888.97;8481685;27;20039;-49
2022/12/15 06:44:39;;;;;;;49.95;20.10;;;;;;;-6.43;99.35;99891.53;8458864;27;20043;-49
2022/12/15 06:48:43;;;;;;;49.38;20.73;;;;;;;-6.36;99.61;99887.78;8482158;27;20135;-48
2022/12/15 06:52:44;;;;;;;53.55;22.48;;;;;;;-6.36;98.95;99887.78;8483019;27;20036;-49
2022/12/15 06:56:44;;;;;;;56.95;22.50;;;;;;;-6.35;99.23;99894.75;8480353;27;20035;-49
2022/12/15 07:00:45;;;;;;;53.10;21.38;;;;;;;-6.39;99.85;99903.66;8480474;27;20392;-49
2022/12/15 07:04:46;;;;;;;46.45;19.15;;;;;;;-6.33;99.76;99898.19;8476890;27;20031;-49
2022/12/15 07:08:53;;;;;;;53.83;20.75;;;;;;;-6.28;99.07;99885.75;8479727;27;20377;-49
2022/12/15 07:12:55;;;;;;;54.80;21.88;;;;;;;-6.23;98.91;99889.06;8475834;27;20035;-49
2022/12/15 07:16:56;;;;;;;55.45;22.42;;;;;;;-6.23;98.68;99902.22;8457989;27;20044;-49
2022/12/15 07:21:02;;;;;;;57.90;22.55;;;;;;;-6.23;99.15;99904.84;8456816;27;20047;-49
2022/12/15 07:25:03;;;;;;;54.85;23.83;;;;;;;-6.19;99.21;99917.00;8459609;27;20032;-53
2022/12/15 07:29:04;;;;;;;54.92;21.42;;;;;;;-6.21;100.00;99918.81;8460065;27;20028;-49
2022/12/15 07:33:04;;;;;;;57.53;23.67;;;;;;;-6.22;99.89;99917.09;8460503;27;20073;-49
2022/12/15 07:37:05;;;;;;;60.40;21.25;;;;;;;-6.15;99.68;99929.13;8459615;27;20045;-49
2022/12/15 07:41:07;;;;;;;57.65;21.02;;;;;;;-6.14;99.80;99915.06;8460224;28;20040;-49
2022/12/15 07:45:08;;;;;;;55.50;22.92;;;;;;;-6.11;99.42;99917.56;8452742;28;20039;-50
2022/12/15 07:49:09;;;;;;;45.88;20.30;;;;;;;-6.08;99.75;99914.84;8426319;28;20135;-50
2022/12/15 07:53:09;;;;;;;57.65;23.45;;;;;;;-6.11;99.24;99920.22;8442331;27;20032;-50
2022/12/15 07:57:10;;;;;;;81.40;32.70;;;;;;;-6.07;99.65;99928.88;8426316;27;20122;-49
2022/12/15 08:01:12;;;;;;;57.15;22.90;;;;;;;-5.77;100.00;99923.34;8458927;27;20039;-49
2022/12/15 08:05:13;;;;;;;49.10;21.50;;;;;;;-5.87;98.90;99940.41;8457231;27;20058;-50
2022/12/15 08:09:13;;;;;;;48.70;21.20;;;;;;;-5.85;98.99;99943.84;8458411;28;20032;-49
2022/12/15 08:13:14;;;;;;;46.58;20.65;;;;;;;-5.80;98.37;99941.88;8457298;28;20036;-51
2022/12/15 08:17:15;;;;;;;52.92;22.10;;;;;;;-5.74;98.26;99946.91;8455531;27;20028;-50
2022/12/15 08:21:15;;;;;;;53.17;21.52;;;;;;;-5.67;98.49;99948.44;8455970;27;20043;-49
2022/12/15 08:25:16;;;;;;;58.72;22.83;;;;;;;-5.58;98.18;99953.34;8437291;27;20043;-50
2022/12/15 08:29:17;;;;;;;53.88;23.38;;;;;;;-5.52;97.99;99958.41;8457389;27;20043;-50
2022/12/15 08:33:17;;;;;;;53.75;22.63;;;;;;;-5.31;97.62;99956.78;8458611;27;20174;-50
2022/12/15 08:37:18;;;;;;;59.47;23.92;;;;;;;-4.29;94.49;99966.78;8457580;27;20043;-52
2022/12/15 08:41:22;;;;;;;53.13;23.13;;;;;;;-3.40;89.22;99964.72;8457923;27;20492;-53
2022/12/15 08:45:22;;;;;;;56.15;20.58;;;;;;;-2.78;86.10;99963.59;8439457;27;20546;-53
2022/12/15 08:49:23;;;;;;;56.20;21.45;;;;;;;-2.42;82.94;99971.56;8457927;27;20457;-50
2022/12/15 08:53:24;;;;;;;37.80;18.08;;;;;;;-1.91;81.83;99963.75;8473574;27;20048;-50
2022/12/15 08:57:26;;;;;;;47.03;19.15;;;;;;;-1.35;79.14;99967.00;8458201;27;20556;-49
2022/12/15 09:01:53;;;;;;;44.20;18.83;;;;;;;-1.21;77.52;99975.09;8456369;27;20098;-49
2022/12/15 09:05:53;;;;;;;40.70;16.35;;;;;;;-1.60;78.23;99977.16;8456951;27;20035;-49
2022/12/15 09:09:54;;;;;;;43.95;19.30;;;;;;;-1.41;78.78;99977.06;8457023;28;20039;-50
2022/12/15 09:13:55;;;;;;;48.00;19.25;;;;;;;-1.10;77.44;99996.56;8430115;27;20051;-50
2022/12/15 09:17:55;;;;;;;47.90;19.95;;;;;;;-0.75;75.86;99994.69;8423516;28;20028;-50
2022/12/15 09:21:55;;;;;;;47.63;20.63;;;;;;;-0.48;76.47;100011.78;8425416;27;20046;-49
2022/12/15 09:26:01;;;;;;;43.45;18.65;;;;;;;-0.31;75.06;99999.28;8422765;27;20032;-50
2022/12/15 09:30:02;;;;;;;44.10;18.10;;;;;;;-0.50;75.65;100011.88;8423106;27;20540;-50
2022/12/15 09:34:03;;;;;;;40.72;18.85;;;;;;;-0.77;75.49;100009.84;8422677;27;20109;-50
2022/12/15 09:38:04;;;;;;;38.00;18.00;;;;;;;-0.44;76.12;100014.19;8421688;27;20108;-49
2022/12/15 09:42:04;;;;;;;40.33;18.75;;;;;;;-0.34;74.48;100022.47;8421862;27;20074;-51
2022/12/15 09:46:19;;;;;;;48.10;20.83;;;;;;;-0.05;74.92;100025.25;8420790;27;20497;-49
2022/12/15 09:50:26;;;;;;;44.85;20.42;;;;;;;0.66;72.00;100020.19;8419495;27;20047;-53
2022/12/15 09:54:31;;;;;;;42.30;20.23;;;;;;;0.59;72.00;100024.19;8420584;27;20508;-50
2022/12/15 09:59:12;;;;;;;41.92;20.23;;;;;;;0.77;72.98;100039.91;8420704;27;20440;-51
2022/12/15 10:03:53;;;;;;;43.28;19.52;;;;;;;1.03;70.84;100051.63;8417611;27;20040;-51
2022/12/15 10:07:58;;;;;;;48.97;20.50;;;;;;;0.93;71.82;100040.69;8420541;27;20460;-49
2022/12/15 10:12:03;;;;;;;50.83;21.70;;;;;;;0.35;71.83;100055.72;8420991;27;20161;-53
2022/12/15 10:16:28;;;;;;;50.78;22.00;;;;;;;0.55;74.31;100046.59;8420328;27;20109;-49
2022/12/15 10:20:31;;;;;;;43.47;20.25;;;;;;;0.83;71.27;100028.03;8419696;27;20043;-50
2022/12/15 10:24:32;;;;;;;50.08;21.55;;;;;;;0.12;73.53;100044.69;8420017;27;20310;-50
2022/12/15 10:29:05;;;;;;;44.50;21.02;;;;;;;0.46;75.98;100040.00;8420420;27;20520;-50
2022/12/15 10:33:18;;;;;;;54.72;22.25;;;;;;;-0.13;76.50;100023.94;8420137;27;20044;-49
2022/12/15 10:37:20;;;;;;;46.80;21.02;;;;;;;-0.20;78.39;100018.13;8418603;27;20332;-49
2022/12/15 10:41:24;;;;;;;58.08;24.40;;;;;;;1.18;77.95;100011.63;8420046;27;20479;-49
2022/12/15 10:45:34;;;;;;;63.05;26.55;;;;;;;1.53;73.79;100001.47;8418140;27;20058;-50
2022/12/15 10:49:35;;;;;;;54.60;23.08;;;;;;;0.96;74.27;99997.94;8421176;27;20119;-50
2022/12/15 10:53:43;;;;;;;51.10;20.95;;;;;;;0.81;75.47;100009.50;8426126;27;20040;-50
2022/12/15 10:58:00;;;;;;;54.85;23.67;;;;;;;0.68;77.04;100002.34;8426329;27;20382;-50
2022/12/15 11:02:25;;;;;;;58.17;22.65;;;;;;;0.64;76.48;100000.84;8425597;27;20048;-50
2022/12/15 11:06:32;;;;;;;61.63;26.30;;;;;;;0.55;78.27;100012.84;8424313;27;20671;-49
2022/12/15 11:14:52;;;;;;;72.57;29.15;;;;;;;0.31;80.68;100010.78;8422996;27;20037;-50
2022/12/15 11:19:01;;;;;;;112.47;40.15;;;;;;;0.82;78.77;100005.06;8425395;27;20337;-50
2022/12/15 11:23:10;;;;;;;68.25;28.02;;;;;;;1.42;77.13;100012.78;8424277;27;20120;-49
2022/12/15 11:27:47;;;;;;;60.50;23.92;;;;;;;1.83;77.15;100007.50;8426726;27;20040;-51
2022/12/15 11:31:49;;;;;;;68.32;28.45;;;;;;;1.59;76.24;100003.75;8414951;27;20115;-50
2022/12/15 11:36:08;;;;;;;57.08;23.55;;;;;;;1.74;77.00;99997.44;8417458;27;20046;-50
2022/12/15 11:40:29;;;;;;;60.13;25.75;;;;;;;1.76;76.62;100006.16;8458970;27;20039;-49
2022/12/15 11:44:57;;;;;;;59.08;26.23;;;;;;;2.10;75.73;100003.03;8459147;27;20051;-50
2022/12/15 11:53:25;;;;;;;67.95;26.98;;;;;;;0.89;79.22;100007.25;8411775;27;20473;-47
2022/12/15 11:57:51;;;;;;;64.60;26.77;;;;;;;0.40;83.49;99989.84;8392481;28;20047;-49
2022/12/15 12:02:29;;;;;;;78.82;31.25;;;;;;;-0.07;85.76;99992.59;8393781;27;20060;-48
2022/12/15 12:06:59;;;;;;;74.00;27.67;;;;;;;-0.14;86.61;99995.69;8391554;28;20037;-48
2022/12/15 12:11:25;;;;;;;74.47;27.90;;;;;;;-0.18;87.00;99989.66;8391348;27;20036;-48
2022/12/15 12:15:49;;;;;;;77.68;31.17;;;;;;;-0.29;88.56;99986.78;8396928;27;20044;-48
2022/12/15 12:19:56;;;;;;;74.57;30.55;;;;;;;-0.19;89.31;99971.16;8366816;28;20029;-48
2022/12/15 12:24:03;;;;;;;82.63;31.35;;;;;;;-0.29;88.35;99962.88;8366433;28;20037;-49
2022/12/15 12:28:15;;;;;;;82.10;31.33;;;;;;;-0.25;88.91;99967.06;8374842;27;20032;-49
2022/12/15 12:32:32;;;;;;;85.82;33.58;;;;;;;-0.32;89.68;99971.03;8389095;27;20033;-48
2022/12/15 12:36:32;;;;;;;74.03;29.85;;;;;;;-0.49;90.36;99955.16;8388088;28;20037;-48
2022/12/15 12:41:04;;;;;;;75.65;30.08;;;;;;;-0.43;89.78;99946.00;8366134;28;20036;-49
2022/12/15 12:45:09;;;;;;;79.53;30.73;;;;;;;-0.22;90.93;99940.34;8380920;27;20520;-50
2022/12/15 12:49:35;;;;;;;87.00;33.00;;;;;;;0.06;90.30;99917.50;8411741;27;20047;-51
2022/12/15 12:53:35;;;;;;;90.82;35.08;;;;;;;-0.10;89.55;99910.44;8366473;27;20098;-53
2022/12/15 12:57:51;;;;;;;92.90;35.78;;;;;;;-0.25;90.73;99913.97;8374774;27;20485;-53
2022/12/15 13:01:54;;;;;;;96.32;36.20;;;;;;;-0.27;91.79;99909.69;8390901;27;20041;-51
2022/12/15 13:05:55;;;;;;;96.47;36.10;;;;;;;-0.35;91.94;99911.91;8372953;28;20033;-51
2022/12/15 13:10:17;;;;;;;101.53;38.83;;;;;;;-0.45;92.82;99911.56;8376066;28;20033;-50
2022/12/15 13:14:23;;;;;;;98.53;38.10;;;;;;;-0.46;91.77;99907.22;8359394;28;20044;-51
2022/12/15 13:18:26;;;;;;;100.78;36.90;;;;;;;-0.36;91.99;99895.13;8340828;28;20044;-49
2022/12/15 13:22:32;;;;;;;104.68;40.35;;;;;;;-0.36;92.57;99881.84;8392386;28;20064;-50
2022/12/15 13:26:32;;;;;;;121.97;42.95;;;;;;;-0.37;91.97;99882.81;8386311;28;20044;-51
2022/12/15 13:30:33;;;;;;;119.50;43.13;;;;;;;-0.24;92.47;99882.97;8366729;28;20041;-51
2022/12/15 13:34:37;;;;;;;95.45;37.13;;;;;;;-0.19;93.55;99873.78;8332661;28;20040;-50
2022/12/15 13:38:54;;;;;;;103.85;38.45;;;;;;;-0.31;93.88;99865.66;8383274;28;20041;-50
2022/12/15 13:43:05;;;;;;;104.35;40.60;;;;;;;-0.48;94.82;99856.03;8382888;28;20040;-50
2022/12/15 13:47:15;;;;;;;107.80;41.22;;;;;;;-0.53;95.39;99855.44;8388089;28;20058;-51
2022/12/15 13:51:39;;;;;;;110.55;40.45;;;;;;;-0.56;96.34;99845.00;8386861;28;20051;-50
2022/12/15 13:55:52;;;;;;;114.68;42.13;;;;;;;-0.54;97.27;99837.81;8385954;28;20072;-50
2022/12/15 14:00:04;;;;;;;106.95;41.05;;;;;;;-0.55;97.44;99843.19;8387605;28;20390;-50
2022/12/15 14:04:25;;;;;;;147.02;49.80;;;;;;;-0.58;99.12;99836.25;8380996;27;20407;-52
2022/12/15 14:08:29;;;;;;;135.13;48.35;;;;;;;-0.60;99.72;99835.50;8381916;28;20043;-51
2022/12/15 14:12:30;;;;;;;;;;;;;;;-0.71;100.00;99829.94;8382783;28;20123;-50
2022/12/15 14:16:34;;;;;;;162.55;54.50;;;;;;;-0.78;100.00;99828.59;8364807;28;19924;-50
2022/12/15 14:20:39;;;;;;;165.75;56.88;;;;;;;-0.87;100.00;99829.09;8381947;28;20041;-50
2022/12/15 14:24:44;;;;;;;158.07;53.47;;;;;;;-0.93;100.00;99824.16;8334880;28;20049;-49
2022/12/15 14:28:46;;;;;;;176.40;57.47;;;;;;;-1.04;100.00;99807.97;8366707;28;20439;-50
2022/12/15 14:32:52;;;;;;;178.18;60.10;;;;;;;-1.09;100.00;99820.66;8378937;28;20036;-53
2022/12/15 14:36:56;;;;;;;189.07;63.05;;;;;;;-1.13;100.00;99819.09;8379005;28;20067;-49
2022/12/15 14:41:00;;;;;;;235.85;76.90;;;;;;;-1.17;100.00;99819.34;8360424;28;20537;-51
2022/12/15 14:45:01;;;;;;;;;;;;;;;-1.26;100.00;99820.72;8378500;28;20572;-51
2022/12/15 14:49:06;;;;;;;207.38;62.33;;;;;;;-1.38;100.00;99821.38;8377886;28;19931;-49
2022/12/15 14:53:15;;;;;;;183.90;62.17;;;;;;;-1.53;100.00;99816.91;8375391;28;20064;-50
2022/12/15 14:57:23;;;;;;;184.82;59.08;;;;;;;-1.61;100.00;99811.19;8371038;28;20039;-50
2022/12/15 15:01:32;;;;;;;161.77;55.95;;;;;;;-1.71;100.00;99817.88;8370877;28;20044;-51
2022/12/15 15:05:33;;;;;;;187.38;58.03;;;;;;;-1.77;100.00;99820.84;8360411;28;20444;-50
2022/12/15 15:09:42;;;;;;;179.20;54.42;;;;;;;-1.77;100.00;99827.97;8362307;28;20060;-52
2022/12/15 15:13:44;;;;;;;196.65;61.35;;;;;;;-1.85;100.00;99825.72;8360799;28;20403;-50
2022/12/15 15:17:50;;;;;;;202.07;62.65;;;;;;;-1.92;100.00;99836.72;8353630;28;20677;-49
2022/12/15 15:21:51;;;;;;;211.25;68.43;;;;;;;-2.04;100.00;99856.75;8354858;28;20273;-50
2022/12/15 15:26:05;;;;;;;186.65;59.72;;;;;;;-1.96;100.00;99856.34;8336843;28;20041;-50
2022/12/15 15:30:22;;;;;;;181.27;57.80;;;;;;;-2.02;100.00;99868.09;8348602;28;20044;-51
2022/12/15 15:34:23;;;;;;;165.35;53.72;;;;;;;-2.09;100.00;99869.34;8324800;28;20524;-50
2022/12/15 15:38:27;;;;;;;162.25;55.35;;;;;;;-2.09;100.00;99874.66;8330686;28;20056;-50
2022/12/15 15:42:28;;;;;;;137.45;51.20;;;;;;;-2.14;100.00;99879.31;8314753;28;20045;-53
2022/12/15 15:46:33;;;;;;;133.55;47.30;;;;;;;-2.18;100.00;99896.28;8344222;28;20035;-52
2022/12/15 15:50:34;;;;;;;134.52;46.20;;;;;;;-2.20;100.00;99900.78;8350728;28;20119;-49
2022/12/15 15:54:35;;;;;;;141.20;51.38;;;;;;;-2.26;100.00;99909.03;8354859;28;20504;-50
2022/12/15 15:58:35;;;;;;;150.40;51.95;;;;;;;-2.38;100.00;99910.50;8346390;28;20059;-49
2022/12/15 16:02:36;;;;;;;128.85;48.13;;;;;;;-2.49;100.00;99917.25;8353558;28;20052;-53
2022/12/15 16:06:37;;;;;;;116.72;41.47;;;;;;;-2.51;100.00;99913.81;8353588;28;20067;-49
2022/12/15 16:10:38;;;;;;;109.53;41.47;;;;;;;-2.50;100.00;99904.97;8354214;28;20041;-49
2022/12/15 16:14:38;;;;;;;132.65;48.63;;;;;;;-2.56;100.00;99910.56;8337723;28;20041;-53
2022/12/15 16:18:39;;;;;;;124.57;46.53;;;;;;;-2.64;100.00;99905.63;8347385;28;20041;-49
2022/12/15 16:22:42;;;;;;;128.45;48.83;;;;;;;-2.64;100.00;99904.75;8340182;28;20045;-49
2022/12/15 16:26:47;;;;;;;110.03;41.35;;;;;;;-2.77;100.00;99904.47;8352973;28;20361;-49
2022/12/15 16:30:49;;;;;;;106.07;39.90;;;;;;;-3.07;100.00;99908.59;8351391;28;20065;-49
2022/12/15 16:34:49;;;;;;;103.88;38.20;;;;;;;-3.14;100.00;99908.94;8345203;28;20045;-49
2022/12/15 16:38:50;;;;;;;113.68;41.67;;;;;;;-3.21;100.00;99904.84;8335502;28;20041;-49
2022/12/15 16:42:54;;;;;;;106.38;39.88;;;;;;;-3.17;100.00;99906.44;8343448;28;20087;-52
2022/12/15 16:46:56;;;;;;;94.40;36.60;;;;;;;-2.96;100.00;99911.56;8343578;28;20051;-50
2022/12/15 16:50:58;;;;;;;96.45;34.63;;;;;;;-2.87;100.00;99915.59;8346775;28;20471;-50
2022/12/15 16:54:58;;;;;;;100.80;38.72;;;;;;;-2.83;100.00;99911.88;8338167;28;20620;-49
2022/12/15 16:58:59;;;;;;;112.53;43.00;;;;;;;-2.90;100.00;99921.84;8339956;28;20045;-50
2022/12/15 17:03:01;;;;;;;96.57;36.42;;;;;;;-2.90;100.00;99915.72;8350153;28;20522;-49
2022/12/15 17:07:01;;;;;;;101.95;37.35;;;;;;;-2.91;100.00;99935.16;8353134;28;20124;-49
2022/12/15 17:11:03;;;;;;;100.00;38.55;;;;;;;-3.02;100.00;99932.16;8352767;28;20090;-49
2022/12/15 17:15:16;;;;;;;113.97;41.60;;;;;;;-3.12;100.00;99936.13;8353863;28;20029;-50
2022/12/15 17:19:17;;;;;;;119.13;46.08;;;;;;;-3.14;100.00;99945.94;8350317;28;20036;-50
2022/12/15 17:23:21;;;;;;;85.72;35.30;;;;;;;-3.13;100.00;99945.00;8352484;28;20533;-49
2022/12/15 17:27:27;;;;;;;99.47;36.92;;;;;;;-3.22;100.00;99945.41;8353286;28;20090;-50
2022/12/15 17:31:27;;;;;;;97.57;35.25;;;;;;;-3.31;100.00;99951.13;8352345;28;20430;-50
2022/12/15 17:35:28;;;;;;;101.90;38.25;;;;;;;-3.39;100.00;99947.97;8350188;28;20096;-49
2022/12/15 17:39:29;;;;;;;157.05;57.42;;;;;;;-3.31;100.00;99927.34;8353119;28;20043;-50
2022/12/15 17:43:30;;;;;;;112.32;42.55;;;;;;;-3.51;100.00;99916.81;8333243;28;20056;-49
2022/12/15 17:47:30;;;;;;;113.43;39.28;;;;;;;-3.52;100.00;99909.78;8348570;28;20056;-51
2022/12/15 17:51:31;;;;;;;97.88;38.70;;;;;;;-3.52;100.00;99926.50;8322573;28;20401;-49
2022/12/15 17:55:33;;;;;;;98.68;36.55;;;;;;;-3.64;100.00;99926.19;8352702;28;20037;-48
2022/12/15 17:59:33;;;;;;;104.22;38.92;;;;;;;-3.98;100.00;99931.19;8352853;28;20444;-50
2022/12/15 18:03:34;;;;;;;108.28;42.15;;;;;;;-4.14;100.00;99934.47;8334125;28;20037;-51
2022/12/15 18:07:35;;;;;;;103.78;36.08;;;;;;;-4.11;100.00;99936.16;8329419;28;20095;-52
2022/12/15 18:11:35;;;;;;;103.93;40.00;;;;;;;-4.24;100.00;99946.34;8352231;28;20044;-48
2022/12/15 18:15:36;;;;;;;98.78;36.33;;;;;;;-4.17;100.00;99953.06;8334967;28;20540;-52
2022/12/15 18:19:36;;;;;;;104.43;36.00;;;;;;;-4.12;100.00;99950.25;8353439;28;20128;-50
2022/12/15 18:23:37;;;;;;;112.22;41.92;;;;;;;-4.12;100.00;99953.75;8335169;28;20044;-48
2022/12/15 18:27:38;;;;;;;105.93;37.65;;;;;;;-4.19;100.00;99954.06;8353765;28;20272;-49
2022/12/15 18:31:39;;;;;;;98.95;36.40;;;;;;;-4.43;100.00;99963.84;8353109;28;20498;-49
2022/12/15 18:35:43;;;;;;;93.25;34.45;;;;;;;-4.58;100.00;99955.66;8352443;28;20049;-48
2022/12/15 18:39:44;;;;;;;89.20;32.20;;;;;;;-4.65;100.00;99949.81;8345296;28;20041;-50
2022/12/15 18:43:46;;;;;;;114.53;39.88;;;;;;;-4.55;100.00;99948.50;8353048;28;20091;-49
2022/12/15 18:47:47;;;;;;;119.78;44.65;;;;;;;-4.41;100.00;99948.84;8353095;28;20045;-49
2022/12/15 18:51:49;;;;;;;121.57;43.55;;;;;;;-4.22;100.00;99943.63;8359282;28;20584;-52
2022/12/15 18:55:49;;;;;;;114.85;45.72;;;;;;;-4.16;100.00;99938.97;8357367;28;20378;-49
2022/12/15 18:59:50;;;;;;;120.03;42.83;;;;;;;-4.61;100.00;99946.13;8356481;28;20048;-50
2022/12/15 19:03:50;;;;;;;111.18;39.90;;;;;;;-4.77;100.00;99937.09;8358416;28;20053;-49
2022/12/15 19:07:53;;;;;;;117.40;42.03;;;;;;;-4.58;100.00;99939.84;8357970;28;20036;-49
2022/12/15 19:12:24;;;;;;;123.00;45.50;;;;;;;-4.48;100.00;99942.06;8354496;28;20098;-51
2022/12/15 19:16:17;;;;;;;137.30;47.50;;;;;;;-4.57;100.00;99947.69;8352289;28;20467;-48
2022/12/15 19:24:54;;;;;;;137.57;50.00;;;;;;;-4.61;100.00;99951.38;8357841;28;20045;-48
2022/12/15 19:28:55;;;;;;;125.07;47.03;;;;;;;-4.70;100.00;99946.47;8352073;28;20090;-50
2022/12/15 19:32:56;;;;;;;130.18;43.75;;;;;;;-5.08;100.00;99939.22;8357056;28;20044;-48
2022/12/15 19:36:58;;;;;;;122.32;45.63;;;;;;;-5.29;100.00;99940.00;8357994;28;20072;-49
2022/12/15 19:40:59;;;;;;;137.05;49.83;;;;;;;-4.87;100.00;99943.66;8339898;28;20439;-49
2022/12/15 19:45:01;;;;;;;150.98;53.78;;;;;;;-4.72;100.00;99943.06;8357224;28;20037;-50
2022/12/15 19:49:01;;;;;;;143.57;56.13;;;;;;;-4.75;100.00;99953.72;8341070;28;20052;-49
2022/12/15 19:57:27;;;;;;;129.82;48.50;;;;;;;-4.68;100.00;99949.91;8315278;28;20778;-50
2022/12/15 20:01:27;;;;;;;125.03;45.83;;;;;;;-5.20;100.00;99944.94;8316119;28;20060;-50
2022/12/15 20:05:28;;;;;;;128.02;49.13;;;;;;;-5.42;100.00;99954.53;8317737;28;20045;-50
2022/12/15 20:09:29;;;;;;;129.75;46.08;;;;;;;-5.20;100.00;99944.94;8316113;28;20076;-49
2022/12/15 20:13:30;;;;;;;117.05;42.13;;;;;;;-5.04;100.00;99955.72;8313783;28;25312;-49
2022/12/15 20:17:30;;;;;;;102.55;38.63;;;;;;;-5.16;100.00;99945.69;8315630;28;20452;-50
2022/12/15 20:21:35;;;;;;;105.45;40.53;;;;;;;-5.23;100.00;99937.16;8313652;28;20037;-49
2022/12/15 20:25:37;;;;;;;99.40;36.47;;;;;;;-5.17;100.00;99955.34;8315447;28;20108;-49
2022/12/15 20:29:38;;;;;;;110.35;39.60;;;;;;;-5.07;100.00;99950.59;8316126;28;20034;-50
2022/12/15 20:33:39;;;;;;;116.82;40.53;;;;;;;-5.15;100.00;99943.00;8315640;28;20369;-52
2022/12/15 20:37:40;;;;;;;121.65;41.95;;;;;;;-5.73;100.00;99943.41;8315452;28;20042;-53
2022/12/15 20:41:40;;;;;;;104.20;37.67;;;;;;;-5.58;100.00;99936.72;8307176;28;20486;-52
2022/12/15 20:45:41;;;;;;;112.30;40.10;;;;;;;-5.84;100.00;99919.25;8312741;28;20111;-53
2022/12/15 20:49:42;;;;;;;106.63;36.17;;;;;;;-5.53;100.00;99930.38;8315209;28;20045;-52
2022/12/15 20:53:43;;;;;;;95.85;36.15;;;;;;;-5.22;100.00;99930.13;8315186;28;20046;-55
2022/12/15 20:57:43;;;;;;;115.15;39.28;;;;;;;-5.27;100.00;99935.56;8311511;28;20064;-52
2022/12/15 21:01:45;;;;;;;108.53;38.42;;;;;;;-5.69;100.00;99938.88;8314326;28;20354;-53
2022/12/15 21:05:46;;;;;;;106.90;36.55;;;;;;;-5.64;100.00;99944.84;8309215;28;20041;-54